Terminal Aerodrome Forecast
Issued by NWS

Home | Current Version | Previous Version | Text Only | Print | Product List | Glossary On
Versions: 1 2 3 4 5 6 7 8 9 10 11 12 13 14 15 16 17 18 19 20 21 22 23 24 25 26 27 28 29
000
FTUS43 KLSX 221504 AAA
TAFCPS
TAF AMD
KCPS 221504Z 2215/2312 04006KT 3SM -DZ BR OVC006
     FM221700 08007KT P6SM OVC008
     FM230100 11004KT P6SM VCSH OVC008
     FM230300 11006KT 5SM -SHRA OVC008
     FM230800 22006KT P6SM OVC008=

USA.gov is the U.S. government's official web portal to all federal, state and local government web resources and services.